createdAt,value
2019-05-19T00:01:20.261Z,11.90
2019-05-19T00:04:28.097Z,11.80
2019-05-19T00:07:35.659Z,11.80
2019-05-19T00:10:43.524Z,11.70
2019-05-19T00:13:51.145Z,11.70
2019-05-19T00:16:58.735Z,11.70
2019-05-19T00:20:07.248Z,11.70
2019-05-19T00:23:14.926Z,11.70
2019-05-19T00:26:22.511Z,11.70
2019-05-19T00:29:30.160Z,11.70
2019-05-19T00:32:37.776Z,11.60
2019-05-19T00:35:45.643Z,11.60
2019-05-19T00:38:53.102Z,11.60
2019-05-19T00:42:00.680Z,11.60
2019-05-19T00:45:08.854Z,11.60
2019-05-19T00:48:16.490Z,11.60
2019-05-19T00:51:24.405Z,11.60
2019-05-19T00:54:31.991Z,11.60
2019-05-19T00:57:40.218Z,11.50
2019-05-19T01:00:48.169Z,11.50
2019-05-19T01:03:55.924Z,11.40
2019-05-19T01:07:03.612Z,11.40
2019-05-19T01:10:11.563Z,11.40
2019-05-19T01:13:19.524Z,11.40
2019-05-19T01:16:27.135Z,11.50
2019-05-19T01:19:35.574Z,11.50
2019-05-19T01:22:43.130Z,11.50
2019-05-19T01:25:50.615Z,11.50
2019-05-19T01:28:58.087Z,11.40
2019-05-19T01:32:05.554Z,11.30
2019-05-19T01:35:13.282Z,11.30
2019-05-19T01:38:20.834Z,11.30
2019-05-19T01:41:28.336Z,11.20
2019-05-19T01:44:35.960Z,11.20
2019-05-19T01:47:43.498Z,11.10
2019-05-19T01:50:51.017Z,11.10
2019-05-19T01:53:58.596Z,11.10
2019-05-19T01:57:06.181Z,11.10
2019-05-19T02:00:14.365Z,11.10
2019-05-19T02:03:21.853Z,11.20
2019-05-19T02:06:29.313Z,11.10
2019-05-19T02:09:37.616Z,11.20
2019-05-19T02:12:45.141Z,11.10
2019-05-19T02:15:53.159Z,11.20
2019-05-19T02:19:00.630Z,11.10
2019-05-19T02:22:08.156Z,11.20
2019-05-19T02:25:16.905Z,11.20
2019-05-19T02:28:24.375Z,11.30
2019-05-19T02:31:31.838Z,11.30
2019-05-19T02:34:39.311Z,11.20
2019-05-19T02:37:46.776Z,11.10
2019-05-19T02:40:57.418Z,11.10
2019-05-19T02:44:06.358Z,11.00
2019-05-19T02:47:15.141Z,10.90
2019-05-19T02:50:25.888Z,10.90
2019-05-19T02:53:33.903Z,10.90
2019-05-19T02:56:42.199Z,11.00
2019-05-19T02:59:49.716Z,11.00
2019-05-19T03:02:57.270Z,10.90
2019-05-19T03:06:04.764Z,10.90
2019-05-19T03:09:13.315Z,10.90
2019-05-19T03:12:20.786Z,10.90
2019-05-19T03:15:28.434Z,10.90
2019-05-19T03:18:36.276Z,10.90
2019-05-19T03:21:43.848Z,10.90
2019-05-19T03:24:51.422Z,10.90
2019-05-19T03:27:58.984Z,10.90
2019-05-19T03:31:14.212Z,10.90
2019-05-19T03:34:21.666Z,10.90
2019-05-19T03:37:29.209Z,11.00
2019-05-19T03:40:36.732Z,11.00
2019-05-19T03:43:44.303Z,11.10
2019-05-19T03:46:51.848Z,11.10
2019-05-19T03:49:59.333Z,11.20
2019-05-19T03:53:07.808Z,11.30
2019-05-19T03:56:15.274Z,11.40
2019-05-19T03:59:22.745Z,12.00
2019-05-19T04:02:30.300Z,12.70
2019-05-19T04:05:37.734Z,13.30
2019-05-19T04:08:45.262Z,14.00
2019-05-19T04:11:53.109Z,14.60
2019-05-19T04:15:00.566Z,15.20
2019-05-19T04:18:08.124Z,15.40
2019-05-19T04:21:15.590Z,15.70
2019-05-19T04:24:23.427Z,16.20
2019-05-19T04:27:30.929Z,16.70
2019-05-19T04:30:38.803Z,17.40
2019-05-19T04:33:46.418Z,17.70
2019-05-19T04:36:54.755Z,17.60
2019-05-19T04:40:02.370Z,17.90
2019-05-19T04:43:09.846Z,18.20
2019-05-19T04:46:17.302Z,17.90
2019-05-19T04:49:24.792Z,17.50
2019-05-19T04:52:32.599Z,17.60
2019-05-19T04:55:40.025Z,17.70
2019-05-19T04:58:47.537Z,17.80
2019-05-19T05:01:55.360Z,18.10
2019-05-19T05:05:02.909Z,18.20
2019-05-19T05:08:27.811Z,18.30
2019-05-19T05:11:21.624Z,18.90
2019-05-19T05:14:29.457Z,18.90
2019-05-19T05:17:37.034Z,19.50
2019-05-19T05:20:44.485Z,19.80
2019-05-19T05:23:51.987Z,20.40
2019-05-19T05:26:59.656Z,21.00
2019-05-19T05:30:07.772Z,21.60
2019-05-19T05:33:15.301Z,22.20
2019-05-19T05:36:22.821Z,22.60
2019-05-19T05:39:30.459Z,21.60
2019-05-19T05:42:38.070Z,21.80
2019-05-19T05:45:45.547Z,21.60
2019-05-19T05:48:53.169Z,19.80
2019-05-19T05:52:00.665Z,20.70
2019-05-19T05:55:09.140Z,20.70
2019-05-19T05:58:16.601Z,20.50
2019-05-19T06:01:24.119Z,21.00
2019-05-19T06:04:31.741Z,21.20
2019-05-19T06:07:40.913Z,20.70
2019-05-19T06:10:49.787Z,20.20
2019-05-19T06:14:01.348Z,19.50
2019-05-19T06:17:10.811Z,19.30
2019-05-19T06:20:20.918Z,19.60
2019-05-19T06:23:28.683Z,18.90
2019-05-19T06:26:36.240Z,18.80
2019-05-19T06:29:43.879Z,18.90
2019-05-19T06:32:53.532Z,20.10
2019-05-19T06:36:01.067Z,20.50
2019-05-19T06:39:08.669Z,20.70
2019-05-19T06:42:16.228Z,20.50
2019-05-19T06:45:23.867Z,18.80
2019-05-19T06:48:31.449Z,19.20
2019-05-19T06:51:39.133Z,19.70
2019-05-19T06:54:46.815Z,20.30
2019-05-19T06:57:54.479Z,21.10
2019-05-19T07:01:02.064Z,21.80
2019-05-19T07:04:09.649Z,22.40
2019-05-19T07:07:17.245Z,21.10
2019-05-19T07:10:24.992Z,21.60
2019-05-19T07:13:33.625Z,22.60
2019-05-19T07:16:41.163Z,22.00
2019-05-19T07:19:48.744Z,20.90
2019-05-19T07:22:56.244Z,20.30
2019-05-19T07:26:03.762Z,21.00
2019-05-19T07:29:11.321Z,20.80
2019-05-19T07:32:18.928Z,20.40
2019-05-19T07:35:26.504Z,21.00
2019-05-19T07:38:34.149Z,21.50
2019-05-19T07:41:42.069Z,22.10
2019-05-19T07:44:49.811Z,22.10
2019-05-19T07:47:57.360Z,22.30
2019-05-19T07:51:06.139Z,22.80
2019-05-19T07:54:13.645Z,23.20
2019-05-19T07:57:21.213Z,23.60
2019-05-19T08:00:28.816Z,24.10
2019-05-19T08:03:36.396Z,23.90
2019-05-19T08:06:44.037Z,23.20
2019-05-19T08:09:51.859Z,24.30
2019-05-19T08:12:59.513Z,24.70
2019-05-19T08:16:07.069Z,24.70
2019-05-19T08:19:14.629Z,24.70
2019-05-19T08:22:22.299Z,24.30
2019-05-19T08:25:30.506Z,25.00
2019-05-19T08:28:38.444Z,25.50
2019-05-19T08:31:46.002Z,26.60
2019-05-19T08:34:53.565Z,26.00
2019-05-19T08:38:01.069Z,25.70
2019-05-19T08:41:08.791Z,25.80
2019-05-19T08:44:17.476Z,25.10
2019-05-19T08:47:25.315Z,25.60
2019-05-19T08:50:33.035Z,25.30
2019-05-19T08:53:40.501Z,26.10
2019-05-19T08:56:49.416Z,25.80
2019-05-19T08:59:57.009Z,24.40
2019-05-19T09:03:04.891Z,25.00
2019-05-19T09:06:12.592Z,25.40
2019-05-19T09:09:20.541Z,26.10
2019-05-19T09:12:28.189Z,26.60
2019-05-19T09:15:35.669Z,26.80
2019-05-19T09:18:43.234Z,27.10
2019-05-19T09:21:50.786Z,27.40
2019-05-19T09:24:58.315Z,27.40
2019-05-19T09:28:05.911Z,27.20
2019-05-19T09:31:13.485Z,27.20
2019-05-19T09:34:21.097Z,27.40
2019-05-19T09:37:28.621Z,26.80
2019-05-19T09:40:36.415Z,27.20
2019-05-19T09:43:44.081Z,26.80
2019-05-19T09:46:51.835Z,26.90
2019-05-19T09:49:59.352Z,27.40
2019-05-19T09:53:06.887Z,27.20
2019-05-19T09:56:14.953Z,27.70
2019-05-19T09:59:22.654Z,28.10
2019-05-19T10:02:30.153Z,28.00
2019-05-19T10:05:37.991Z,28.10
2019-05-19T10:08:49.655Z,27.70
2019-05-19T10:12:05.317Z,28.20
2019-05-19T10:15:15.296Z,29.60
2019-05-19T10:18:23.037Z,31.80
2019-05-19T10:21:30.974Z,31.60
2019-05-19T10:24:38.595Z,32.90
2019-05-19T10:27:46.548Z,33.90
2019-05-19T10:30:54.273Z,34.70
2019-05-19T10:34:01.744Z,34.00
2019-05-19T10:37:10.459Z,34.20
2019-05-19T10:40:18.046Z,34.30
2019-05-19T10:43:25.644Z,34.00
2019-05-19T10:46:33.307Z,33.10
2019-05-19T10:49:42.996Z,33.20
2019-05-19T10:52:50.376Z,34.10
2019-05-19T10:55:58.056Z,34.90
2019-05-19T10:59:05.854Z,34.70
2019-05-19T11:02:13.606Z,33.30
2019-05-19T11:05:21.328Z,34.20
2019-05-19T11:08:29.197Z,34.60
2019-05-19T11:11:36.837Z,33.20
2019-05-19T11:14:44.791Z,32.60
2019-05-19T11:17:53.321Z,32.30
2019-05-19T11:21:01.085Z,32.40
2019-05-19T11:24:09.899Z,33.30
2019-05-19T11:27:17.310Z,34.50
2019-05-19T11:30:25.094Z,35.10
2019-05-19T11:33:32.814Z,35.60
2019-05-19T11:36:40.678Z,34.10
2019-05-19T11:39:48.531Z,35.70
2019-05-19T11:42:56.392Z,35.90
2019-05-19T11:46:04.339Z,35.10
2019-05-19T11:49:13.668Z,33.30
2019-05-19T11:52:21.098Z,31.50
2019-05-19T11:55:29.015Z,31.50
2019-05-19T11:58:36.630Z,30.80
2019-05-19T12:01:44.442Z,29.90
2019-05-19T12:04:52.634Z,30.60
2019-05-19T12:08:00.432Z,30.50
2019-05-19T12:11:08.139Z,30.50
2019-05-19T12:14:15.655Z,31.60
2019-05-19T12:17:23.229Z,31.70
2019-05-19T12:20:30.698Z,30.90
2019-05-19T12:23:38.178Z,29.00
2019-05-19T12:26:45.662Z,29.10
2019-05-19T12:29:53.146Z,28.80
2019-05-19T12:33:00.564Z,28.60
2019-05-19T12:36:08.066Z,28.20
2019-05-19T12:39:15.643Z,28.00
2019-05-19T12:42:23.274Z,27.00
2019-05-19T12:45:31.512Z,26.20
2019-05-19T12:48:39.140Z,25.70
2019-05-19T12:51:46.717Z,25.10
2019-05-19T12:54:54.203Z,24.80
2019-05-19T12:58:01.718Z,24.40
2019-05-19T13:01:09.314Z,24.20
2019-05-19T13:04:16.776Z,23.90
2019-05-19T13:07:24.271Z,23.50
2019-05-19T13:10:31.660Z,23.20
2019-05-19T13:13:39.183Z,22.30
2019-05-19T13:16:46.662Z,21.10
2019-05-19T13:19:54.225Z,20.10
2019-05-19T13:23:01.786Z,19.50
2019-05-19T13:26:09.219Z,19.00
2019-05-19T13:29:16.665Z,18.60
2019-05-19T13:32:24.126Z,18.10
2019-05-19T13:35:31.712Z,17.80
2019-05-19T13:38:39.223Z,17.40
2019-05-19T13:41:46.757Z,17.10
2019-05-19T13:44:54.205Z,17.00
2019-05-19T13:48:01.622Z,16.70
2019-05-19T13:51:09.102Z,16.60
2019-05-19T13:54:16.604Z,15.90
2019-05-19T13:57:24.002Z,15.50
2019-05-19T14:00:31.610Z,15.20
2019-05-19T14:03:41.880Z,15.10
2019-05-19T14:06:49.314Z,14.90
2019-05-19T14:09:57.810Z,14.90
2019-05-19T14:13:05.264Z,15.00
2019-05-19T14:16:12.722Z,15.10
2019-05-19T14:19:20.574Z,15.20
2019-05-19T14:22:29.221Z,15.30
2019-05-19T14:25:39.365Z,15.60
2019-05-19T14:28:46.893Z,15.80
2019-05-19T14:31:55.705Z,16.10
2019-05-19T14:35:04.832Z,16.40
2019-05-19T14:38:12.311Z,16.70
2019-05-19T14:41:32.934Z,16.90
2019-05-19T14:44:29.094Z,17.20
2019-05-19T14:47:36.545Z,17.50
2019-05-19T14:50:44.019Z,17.70
2019-05-19T14:53:51.846Z,18.00
2019-05-19T14:56:59.320Z,18.30
2019-05-19T15:00:07.039Z,18.40
2019-05-19T15:03:14.771Z,18.60
2019-05-19T15:06:22.492Z,18.70
2019-05-19T15:09:30.062Z,18.90
2019-05-19T15:12:37.455Z,19.10
2019-05-19T15:15:44.982Z,19.30
2019-05-19T15:18:52.602Z,19.40
2019-05-19T15:22:00.031Z,19.40
2019-05-19T15:25:07.632Z,19.50
2019-05-19T15:28:15.149Z,19.50
2019-05-19T15:31:22.763Z,19.80
2019-05-19T15:34:30.244Z,19.80
2019-05-19T15:37:37.906Z,19.80
2019-05-19T15:40:45.409Z,19.80
2019-05-19T15:43:53.513Z,19.90
2019-05-19T15:47:00.929Z,20.00
2019-05-19T15:50:09.343Z,20.10
2019-05-19T15:53:16.906Z,20.20
2019-05-19T15:56:24.472Z,20.40
2019-05-19T15:59:31.930Z,20.30
2019-05-19T16:02:39.373Z,20.30
2019-05-19T16:05:46.926Z,20.20
2019-05-19T16:08:54.355Z,20.10
2019-05-19T16:12:01.833Z,20.10
2019-05-19T16:15:10.858Z,20.10
2019-05-19T16:18:18.549Z,20.10
2019-05-19T16:21:26.301Z,20.00
2019-05-19T16:24:33.783Z,19.90
2019-05-19T16:27:42.688Z,20.00
2019-05-19T16:30:50.220Z,19.80
2019-05-19T16:33:57.721Z,19.70
2019-05-19T16:37:05.290Z,19.50
2019-05-19T16:40:13.362Z,19.60
2019-05-19T16:43:21.180Z,19.40
2019-05-19T16:46:30.590Z,19.30
2019-05-19T16:49:38.395Z,19.20
2019-05-19T16:52:45.996Z,19.10
2019-05-19T16:55:53.811Z,19.10
2019-05-19T16:59:01.550Z,19.10
2019-05-19T17:02:10.450Z,19.00
2019-05-19T17:05:18.405Z,19.10
2019-05-19T17:08:26.087Z,19.10
2019-05-19T17:11:33.706Z,19.10
2019-05-19T17:14:41.332Z,19.10
2019-05-19T17:17:48.927Z,19.20
2019-05-19T17:20:56.517Z,19.10
2019-05-19T17:24:04.278Z,19.10
2019-05-19T17:27:11.898Z,19.10
2019-05-19T17:30:20.457Z,19.10
2019-05-19T17:33:28.709Z,19.10
2019-05-19T17:36:36.220Z,19.20
2019-05-19T17:39:44.044Z,19.30
2019-05-19T17:42:51.535Z,19.40
2019-05-19T17:45:59.370Z,19.40
2019-05-19T17:49:07.112Z,19.50
2019-05-19T17:52:14.674Z,19.50
2019-05-19T17:55:22.390Z,19.50
2019-05-19T17:58:31.928Z,19.50
2019-05-19T18:01:39.685Z,19.40
2019-05-19T18:04:47.439Z,19.40
2019-05-19T18:07:55.058Z,19.20
2019-05-19T18:11:03.127Z,19.00
2019-05-19T18:14:10.966Z,18.80
2019-05-19T18:17:18.726Z,18.60
2019-05-19T18:20:26.525Z,18.50
2019-05-19T18:23:34.547Z,18.40
2019-05-19T18:26:42.115Z,18.30
2019-05-19T18:29:49.636Z,18.20
2019-05-19T18:32:57.659Z,18.20
2019-05-19T18:36:05.203Z,18.10
2019-05-19T18:39:12.822Z,18.00
2019-05-19T18:42:20.679Z,18.00
2019-05-19T18:45:28.498Z,18.00
2019-05-19T18:48:36.156Z,17.90
2019-05-19T18:51:44.783Z,17.90
2019-05-19T18:54:52.478Z,17.90
2019-05-19T18:58:00.107Z,17.80
2019-05-19T19:01:08.328Z,17.80
2019-05-19T19:04:16.256Z,17.70
2019-05-19T19:07:42.643Z,17.70
2019-05-19T19:10:50.403Z,17.70
2019-05-19T19:13:58.346Z,17.60
2019-05-19T19:17:06.165Z,17.60
2019-05-19T19:20:14.124Z,17.50
2019-05-19T19:23:21.850Z,17.40
2019-05-19T19:26:29.629Z,17.30
2019-05-19T19:29:37.174Z,17.20
2019-05-19T19:32:45.158Z,17.10
2019-05-19T19:35:52.961Z,17.00
2019-05-19T19:39:00.894Z,16.90
2019-05-19T19:42:10.095Z,16.90
2019-05-19T19:45:18.143Z,16.80
2019-05-19T19:48:25.991Z,16.70
2019-05-19T19:51:34.283Z,16.60
2019-05-19T19:54:42.012Z,16.50
2019-05-19T19:57:49.875Z,16.50
2019-05-19T20:00:57.483Z,16.50
2019-05-19T20:04:05.388Z,16.40
2019-05-19T20:07:14.056Z,16.30
2019-05-19T20:10:21.862Z,16.30
2019-05-19T20:13:29.610Z,16.30
2019-05-19T20:16:37.668Z,16.30
2019-05-19T20:19:45.593Z,16.20
2019-05-19T20:22:53.206Z,16.20
2019-05-19T20:26:01.017Z,16.10
2019-05-19T20:29:09.837Z,16.00
2019-05-19T20:32:17.524Z,15.90
2019-05-19T20:35:25.403Z,15.80
2019-05-19T20:38:34.672Z,15.70
2019-05-19T20:41:42.312Z,15.60
2019-05-19T20:44:50.311Z,15.50
2019-05-19T20:47:57.951Z,15.50
2019-05-19T20:51:06.183Z,15.40
2019-05-19T20:54:14.162Z,15.30
2019-05-19T20:57:21.734Z,15.20
2019-05-19T21:00:29.746Z,15.20
2019-05-19T21:03:37.520Z,15.20
2019-05-19T21:06:45.110Z,15.20
2019-05-19T21:09:52.988Z,15.10
2019-05-19T21:13:00.651Z,15.00
2019-05-19T21:16:08.354Z,15.00
2019-05-19T21:19:16.240Z,14.90
2019-05-19T21:22:23.833Z,14.90
2019-05-19T21:25:31.329Z,14.90
2019-05-19T21:28:38.819Z,14.90
2019-05-19T21:31:46.244Z,14.90
2019-05-19T21:34:53.727Z,14.80
2019-05-19T21:38:01.257Z,14.80
2019-05-19T21:41:08.801Z,14.80
2019-05-19T21:44:16.270Z,14.70
2019-05-19T21:47:23.767Z,14.70
2019-05-19T21:50:31.293Z,14.60
2019-05-19T21:53:39.744Z,14.60
2019-05-19T21:56:47.255Z,14.50
2019-05-19T21:59:54.729Z,14.40
2019-05-19T22:03:02.236Z,14.30
2019-05-19T22:06:09.846Z,14.30
2019-05-19T22:09:17.998Z,14.20
2019-05-19T22:12:26.214Z,14.20
2019-05-19T22:15:33.816Z,14.10
2019-05-19T22:18:41.276Z,14.10
2019-05-19T22:21:48.980Z,14.00
2019-05-19T22:24:56.519Z,14.00
2019-05-19T22:28:04.403Z,14.00
2019-05-19T22:31:12.130Z,13.90
2019-05-19T22:34:20.089Z,13.90
2019-05-19T22:37:27.532Z,13.90
2019-05-19T22:40:34.988Z,13.90
2019-05-19T22:43:42.427Z,13.90
2019-05-19T22:46:50.872Z,13.90
2019-05-19T22:49:58.343Z,14.00
2019-05-19T22:53:05.897Z,14.00
2019-05-19T22:56:13.458Z,14.10
2019-05-19T22:59:20.942Z,14.10
2019-05-19T23:02:28.439Z,14.10
2019-05-19T23:05:35.949Z,14.10
2019-05-19T23:08:43.789Z,14.20
2019-05-19T23:11:51.319Z,14.20
2019-05-19T23:14:58.894Z,14.20
2019-05-19T23:18:06.347Z,14.10
2019-05-19T23:21:13.855Z,14.20
2019-05-19T23:24:21.615Z,14.10
2019-05-19T23:27:29.465Z,14.10
2019-05-19T23:30:36.955Z,14.00
2019-05-19T23:33:46.009Z,14.00
2019-05-19T23:36:53.861Z,13.90
2019-05-19T23:40:01.408Z,13.90
2019-05-19T23:43:08.916Z,13.80
2019-05-19T23:46:17.409Z,13.80
2019-05-19T23:49:24.870Z,13.80
2019-05-19T23:52:32.395Z,13.80
2019-05-19T23:55:39.967Z,13.70
2019-05-19T23:58:47.385Z,13.70
